Huvudsida
METAR-TAF:

METAR-TAF

Flygplatser :

Hammerfests flygplats

Hammerfests, Norge

latitud: 70-40N, longitud: 023-40E, höjd: 8 m

Aktuellt väderrapport

Denna rapport gjordes för 10 minuter sedan, klockan 14:20 UTC
Vind 5 kt från syd, varierande mellan sydost och väst
Temperatur 15°C
Fuktighet 77%
Tryck 1000 hPa
Sikt 10 km eller mer
Spridda moln på en höjd av 2000 ft
Brutna moln på en höjd av 3100 ft
lätt regn

METAR: ENHF 191420Z 19005KT 140V260 9999 -RA SCT020 BKN031 15/11 Q1000 RMK WIND 1254FT 17030G40KT

Tid: 16:30 (14:30 UTC)

Väderprognos

Denna rapport gjordes för 3 timmar och 30 minuter sedan, klockan 11:00 UTC
Prognos gäller från 19 kl. 12 UTC till 19 kl. 21 UTC
Vind 8 kt från syd/sydväst
Sikt 10 km eller mer
Få moln på en höjd av 2000 ft
Brutna moln på en höjd av 4000 ft
Temporärt
från 19 kl. 12 UTC till 19 kl. 21 UTC
Vind 15 kt från syd/sydost i byarna ända upp till 25 kt

TAF: ENHF 191100Z 1912/1921 20008KT 9999 FEW020 BKN040 TEMPO 1912/1921 16015G25KT

Aktuella väderrapporter och prognoser från 4000 flygplatser (METAR- och TAF-rapporter).

De tillgängliga stationerna syns som gula och röda prickar på kartan.

För musen över prickarna för att se namnen på stationerna.

Klicka sedan för att få väderrapporter och prognoser.

För att ändra kartan: Klicka på de gröna knapparna med ett svart kors på för att zooma in; den gröna knappen med ett streck på för att zooma ut; eller på de gröna pilarna för angränsande kartor.


METAR-TAF: